sensor_id;sensor_type;location;lat;lon;timestamp;P1;durP1;ratioP1;P2;durP2;ratioP2
21675;SDS011;10999;51.332;9.458;2024-01-06T00:00:29;3.70;;;0.90;;
21675;SDS011;10999;51.332;9.458;2024-01-06T00:02:56;3.22;;;0.98;;
21675;SDS011;10999;51.332;9.458;2024-01-06T00:05:23;2.92;;;1.00;;
21675;SDS011;10999;51.332;9.458;2024-01-06T00:07:50;3.28;;;1.00;;
21675;SDS011;10999;51.332;9.458;2024-01-06T00:10:17;4.93;;;1.05;;
21675;SDS011;10999;51.332;9.458;2024-01-06T00:12:44;4.50;;;1.17;;
21675;SDS011;10999;51.332;9.458;2024-01-06T00:15:11;3.40;;;1.02;;
21675;SDS011;10999;51.332;9.458;2024-01-06T00:17:38;3.95;;;0.93;;
21675;SDS011;10999;51.332;9.458;2024-01-06T00:20:05;4.28;;;1.42;;
21675;SDS011;10999;51.332;9.458;2024-01-06T00:22:33;5.60;;;1.25;;
21675;SDS011;10999;51.332;9.458;2024-01-06T00:25:00;3.53;;;1.05;;
21675;SDS011;10999;51.332;9.458;2024-01-06T00:27:27;3.33;;;0.98;;
21675;SDS011;10999;51.332;9.458;2024-01-06T00:29:54;4.53;;;1.10;;
21675;SDS011;10999;51.332;9.458;2024-01-06T00:32:20;5.88;;;1.38;;
21675;SDS011;10999;51.332;9.458;2024-01-06T00:34:47;3.85;;;0.95;;
21675;SDS011;10999;51.332;9.458;2024-01-06T00:37:14;5.15;;;1.23;;
21675;SDS011;10999;51.332;9.458;2024-01-06T00:39:41;4.07;;;1.20;;
21675;SDS011;10999;51.332;9.458;2024-01-06T00:42:08;5.18;;;1.05;;
21675;SDS011;10999;51.332;9.458;2024-01-06T00:44:35;4.82;;;1.25;;
21675;SDS011;10999;51.332;9.458;2024-01-06T00:47:03;3.45;;;0.90;;
21675;SDS011;10999;51.332;9.458;2024-01-06T00:49:30;2.58;;;0.75;;
21675;SDS011;10999;51.332;9.458;2024-01-06T00:51:57;4.32;;;1.00;;
21675;SDS011;10999;51.332;9.458;2024-01-06T00:54:25;3.33;;;1.00;;
21675;SDS011;10999;51.332;9.458;2024-01-06T00:56:54;5.53;;;1.25;;
21675;SDS011;10999;51.332;9.458;2024-01-06T00:59:23;5.22;;;1.27;;
21675;SDS011;10999;51.332;9.458;2024-01-06T01:01:50;5.45;;;1.45;;
21675;SDS011;10999;51.332;9.458;2024-01-06T01:04:17;6.22;;;1.10;;
21675;SDS011;10999;51.332;9.458;2024-01-06T01:06:44;2.50;;;1.00;;
21675;SDS011;10999;51.332;9.458;2024-01-06T01:09:10;4.50;;;1.02;;
21675;SDS011;10999;51.332;9.458;2024-01-06T01:11:40;7.22;;;1.20;;
21675;SDS011;10999;51.332;9.458;2024-01-06T01:14:07;3.65;;;0.95;;
21675;SDS011;10999;51.332;9.458;2024-01-06T01:16:34;4.97;;;1.30;;
21675;SDS011;10999;51.332;9.458;2024-01-06T01:19:00;6.65;;;1.70;;
21675;SDS011;10999;51.332;9.458;2024-01-06T01:21:28;4.35;;;1.10;;
21675;SDS011;10999;51.332;9.458;2024-01-06T01:23:55;3.92;;;1.42;;
21675;SDS011;10999;51.332;9.458;2024-01-06T01:26:22;3.83;;;1.10;;
21675;SDS011;10999;51.332;9.458;2024-01-06T01:28:48;5.65;;;1.10;;
21675;SDS011;10999;51.332;9.458;2024-01-06T01:31:15;1.45;;;0.68;;
21675;SDS011;10999;51.332;9.458;2024-01-06T01:33:42;4.00;;;1.20;;
21675;SDS011;10999;51.332;9.458;2024-01-06T01:36:09;6.15;;;1.15;;
21675;SDS011;10999;51.332;9.458;2024-01-06T01:38:36;3.17;;;1.30;;
21675;SDS011;10999;51.332;9.458;2024-01-06T01:41:03;3.42;;;1.10;;
21675;SDS011;10999;51.332;9.458;2024-01-06T01:43:29;1.92;;;1.05;;
21675;SDS011;10999;51.332;9.458;2024-01-06T01:45:56;3.47;;;0.90;;
21675;SDS011;10999;51.332;9.458;2024-01-06T01:48:24;4.72;;;1.20;;
21675;SDS011;10999;51.332;9.458;2024-01-06T01:50:52;3.28;;;1.10;;
21675;SDS011;10999;51.332;9.458;2024-01-06T01:53:19;2.65;;;1.20;;
21675;SDS011;10999;51.332;9.458;2024-01-06T01:55:47;3.10;;;0.95;;
21675;SDS011;10999;51.332;9.458;2024-01-06T01:58:14;7.20;;;1.25;;
21675;SDS011;10999;51.332;9.458;2024-01-06T02:00:42;5.65;;;1.27;;
21675;SDS011;10999;51.332;9.458;2024-01-06T02:03:09;5.20;;;1.15;;
21675;SDS011;10999;51.332;9.458;2024-01-06T02:05:39;5.35;;;1.23;;
21675;SDS011;10999;51.332;9.458;2024-01-06T02:08:06;6.72;;;1.17;;
21675;SDS011;10999;51.332;9.458;2024-01-06T02:10:32;4.80;;;1.10;;
21675;SDS011;10999;51.332;9.458;2024-01-06T02:13:12;5.65;;;1.33;;
21675;SDS011;10999;51.332;9.458;2024-01-06T02:15:39;3.42;;;1.00;;
21675;SDS011;10999;51.332;9.458;2024-01-06T02:18:06;6.90;;;1.25;;
21675;SDS011;10999;51.332;9.458;2024-01-06T02:20:36;6.07;;;1.40;;
21675;SDS011;10999;51.332;9.458;2024-01-06T02:23:03;7.30;;;1.40;;
21675;SDS011;10999;51.332;9.458;2024-01-06T02:25:30;4.00;;;1.20;;
21675;SDS011;10999;51.332;9.458;2024-01-06T02:27:57;3.35;;;0.95;;
21675;SDS011;10999;51.332;9.458;2024-01-06T02:30:23;6.28;;;1.05;;
21675;SDS011;10999;51.332;9.458;2024-01-06T02:32:50;4.25;;;1.23;;
21675;SDS011;10999;51.332;9.458;2024-01-06T02:35:17;5.10;;;1.52;;
21675;SDS011;10999;51.332;9.458;2024-01-06T02:37:44;4.03;;;1.20;;
21675;SDS011;10999;51.332;9.458;2024-01-06T02:40:11;3.83;;;1.25;;
21675;SDS011;10999;51.332;9.458;2024-01-06T02:42:39;4.85;;;1.13;;
21675;SDS011;10999;51.332;9.458;2024-01-06T02:45:07;6.38;;;1.30;;
21675;SDS011;10999;51.332;9.458;2024-01-06T02:47:35;6.45;;;1.15;;
21675;SDS011;10999;51.332;9.458;2024-01-06T02:50:05;5.53;;;1.60;;
21675;SDS011;10999;51.332;9.458;2024-01-06T02:52:32;5.63;;;1.20;;
21675;SDS011;10999;51.332;9.458;2024-01-06T02:54:59;4.63;;;1.30;;
21675;SDS011;10999;51.332;9.458;2024-01-06T02:57:27;3.30;;;1.50;;
21675;SDS011;10999;51.332;9.458;2024-01-06T02:59:55;5.95;;;1.20;;
21675;SDS011;10999;51.332;9.458;2024-01-06T03:02:22;5.72;;;1.38;;
21675;SDS011;10999;51.332;9.458;2024-01-06T03:04:49;4.97;;;1.45;;
21675;SDS011;10999;51.332;9.458;2024-01-06T03:07:16;6.03;;;1.58;;
21675;SDS011;10999;51.332;9.458;2024-01-06T03:09:43;4.95;;;1.23;;
21675;SDS011;10999;51.332;9.458;2024-01-06T03:12:10;4.53;;;1.42;;
21675;SDS011;10999;51.332;9.458;2024-01-06T03:14:37;4.88;;;1.10;;
21675;SDS011;10999;51.332;9.458;2024-01-06T03:17:04;4.72;;;1.38;;
21675;SDS011;10999;51.332;9.458;2024-01-06T03:19:30;4.80;;;1.25;;
21675;SDS011;10999;51.332;9.458;2024-01-06T03:21:57;5.68;;;1.50;;
21675;SDS011;10999;51.332;9.458;2024-01-06T03:24:25;3.95;;;1.13;;
21675;SDS011;10999;51.332;9.458;2024-01-06T03:26:53;5.90;;;1.20;;
21675;SDS011;10999;51.332;9.458;2024-01-06T03:29:19;6.80;;;1.30;;
21675;SDS011;10999;51.332;9.458;2024-01-06T03:31:46;5.30;;;1.20;;
21675;SDS011;10999;51.332;9.458;2024-01-06T03:34:13;5.05;;;1.42;;
21675;SDS011;10999;51.332;9.458;2024-01-06T03:36:40;4.80;;;1.15;;
21675;SDS011;10999;51.332;9.458;2024-01-06T03:39:07;2.90;;;1.05;;
21675;SDS011;10999;51.332;9.458;2024-01-06T03:41:34;5.05;;;1.67;;
21675;SDS011;10999;51.332;9.458;2024-01-06T03:44:01;3.63;;;1.27;;
21675;SDS011;10999;51.332;9.458;2024-01-06T03:46:27;2.75;;;1.00;;
21675;SDS011;10999;51.332;9.458;2024-01-06T03:48:54;5.10;;;1.05;;
21675;SDS011;10999;51.332;9.458;2024-01-06T03:51:21;3.85;;;1.25;;
21675;SDS011;10999;51.332;9.458;2024-01-06T03:53:48;4.35;;;1.40;;
21675;SDS011;10999;51.332;9.458;2024-01-06T03:56:15;6.88;;;2.60;;
21675;SDS011;10999;51.332;9.458;2024-01-06T03:58:42;4.72;;;1.52;;
21675;SDS011;10999;51.332;9.458;2024-01-06T04:01:08;5.20;;;1.38;;
21675;SDS011;10999;51.332;9.458;2024-01-06T04:03:36;3.83;;;1.30;;
21675;SDS011;10999;51.332;9.458;2024-01-06T04:06:03;5.60;;;1.70;;
21675;SDS011;10999;51.332;9.458;2024-01-06T04:08:30;6.25;;;1.60;;
21675;SDS011;10999;51.332;9.458;2024-01-06T04:10:56;4.78;;;1.58;;
21675;SDS011;10999;51.332;9.458;2024-01-06T04:13:23;5.68;;;1.55;;
21675;SDS011;10999;51.332;9.458;2024-01-06T04:15:51;4.35;;;1.20;;
21675;SDS011;10999;51.332;9.458;2024-01-06T04:18:18;6.25;;;1.50;;
21675;SDS011;10999;51.332;9.458;2024-01-06T04:20:45;4.88;;;1.60;;
21675;SDS011;10999;51.332;9.458;2024-01-06T04:23:11;6.00;;;1.70;;
21675;SDS011;10999;51.332;9.458;2024-01-06T04:25:38;6.70;;;1.55;;
21675;SDS011;10999;51.332;9.458;2024-01-06T04:28:05;5.53;;;1.38;;
21675;SDS011;10999;51.332;9.458;2024-01-06T04:30:32;7.15;;;1.80;;
21675;SDS011;10999;51.332;9.458;2024-01-06T04:32:58;4.90;;;1.60;;
21675;SDS011;10999;51.332;9.458;2024-01-06T04:35:25;6.90;;;1.50;;
21675;SDS011;10999;51.332;9.458;2024-01-06T04:37:52;6.65;;;1.48;;
21675;SDS011;10999;51.332;9.458;2024-01-06T04:40:19;5.20;;;1.80;;
21675;SDS011;10999;51.332;9.458;2024-01-06T04:42:47;7.93;;;1.75;;
21675;SDS011;10999;51.332;9.458;2024-01-06T04:45:13;5.03;;;1.30;;
21675;SDS011;10999;51.332;9.458;2024-01-06T04:47:40;7.68;;;1.73;;
21675;SDS011;10999;51.332;9.458;2024-01-06T04:50:07;6.75;;;1.50;;
21675;SDS011;10999;51.332;9.458;2024-01-06T04:52:34;6.28;;;1.58;;
21675;SDS011;10999;51.332;9.458;2024-01-06T04:55:01;7.32;;;1.70;;
21675;SDS011;10999;51.332;9.458;2024-01-06T04:57:28;5.22;;;1.42;;
21675;SDS011;10999;51.332;9.458;2024-01-06T04:59:55;5.45;;;1.70;;
21675;SDS011;10999;51.332;9.458;2024-01-06T05:02:21;5.78;;;1.60;;
21675;SDS011;10999;51.332;9.458;2024-01-06T05:04:48;4.88;;;1.75;;
21675;SDS011;10999;51.332;9.458;2024-01-06T05:07:15;7.35;;;1.80;;
21675;SDS011;10999;51.332;9.458;2024-01-06T05:09:42;5.50;;;1.75;;
21675;SDS011;10999;51.332;9.458;2024-01-06T05:12:08;5.57;;;1.88;;
21675;SDS011;10999;51.332;9.458;2024-01-06T05:14:35;5.47;;;1.63;;
21675;SDS011;10999;51.332;9.458;2024-01-06T05:17:02;7.80;;;1.95;;
21675;SDS011;10999;51.332;9.458;2024-01-06T05:19:29;4.30;;;1.50;;
21675;SDS011;10999;51.332;9.458;2024-01-06T05:21:57;5.97;;;2.00;;
21675;SDS011;10999;51.332;9.458;2024-01-06T05:24:24;8.25;;;2.20;;
21675;SDS011;10999;51.332;9.458;2024-01-06T05:26:50;6.57;;;2.08;;
21675;SDS011;10999;51.332;9.458;2024-01-06T05:29:18;5.72;;;2.20;;
21675;SDS011;10999;51.332;9.458;2024-01-06T05:31:44;9.18;;;2.13;;
21675;SDS011;10999;51.332;9.458;2024-01-06T05:34:13;4.85;;;1.80;;
21675;SDS011;10999;51.332;9.458;2024-01-06T05:36:40;4.88;;;1.80;;
21675;SDS011;10999;51.332;9.458;2024-01-06T05:39:07;6.13;;;1.52;;
21675;SDS011;10999;51.332;9.458;2024-01-06T05:41:37;5.53;;;2.13;;
21675;SDS011;10999;51.332;9.458;2024-01-06T05:44:05;8.65;;;2.40;;
21675;SDS011;10999;51.332;9.458;2024-01-06T05:46:32;6.90;;;2.40;;
21675;SDS011;10999;51.332;9.458;2024-01-06T05:48:59;5.60;;;1.70;;
21675;SDS011;10999;51.332;9.458;2024-01-06T05:51:26;6.38;;;2.05;;
21675;SDS011;10999;51.332;9.458;2024-01-06T05:53:53;6.15;;;2.05;;
21675;SDS011;10999;51.332;9.458;2024-01-06T05:56:24;5.40;;;1.75;;
21675;SDS011;10999;51.332;9.458;2024-01-06T05:58:52;5.70;;;1.88;;
21675;SDS011;10999;51.332;9.458;2024-01-06T06:01:20;6.60;;;2.10;;
21675;SDS011;10999;51.332;9.458;2024-01-06T06:03:50;7.63;;;2.17;;
21675;SDS011;10999;51.332;9.458;2024-01-06T06:06:18;5.03;;;1.55;;
21675;SDS011;10999;51.332;9.458;2024-01-06T06:08:45;6.05;;;1.80;;
21675;SDS011;10999;51.332;9.458;2024-01-06T06:11:12;4.97;;;1.85;;
21675;SDS011;10999;51.332;9.458;2024-01-06T06:13:42;5.28;;;2.00;;
21675;SDS011;10999;51.332;9.458;2024-01-06T06:16:09;7.00;;;1.90;;
21675;SDS011;10999;51.332;9.458;2024-01-06T06:18:38;6.22;;;1.83;;
21675;SDS011;10999;51.332;9.458;2024-01-06T06:21:06;5.88;;;2.10;;
21675;SDS011;10999;51.332;9.458;2024-01-06T06:23:34;5.35;;;1.80;;
21675;SDS011;10999;51.332;9.458;2024-01-06T06:26:07;8.02;;;2.03;;
21675;SDS011;10999;51.332;9.458;2024-01-06T06:28:34;3.78;;;1.48;;
21675;SDS011;10999;51.332;9.458;2024-01-06T06:31:02;6.18;;;2.10;;
21675;SDS011;10999;51.332;9.458;2024-01-06T06:33:29;6.20;;;1.80;;
21675;SDS011;10999;51.332;9.458;2024-01-06T06:35:57;5.75;;;1.95;;
21675;SDS011;10999;51.332;9.458;2024-01-06T06:38:25;5.65;;;1.98;;
21675;SDS011;10999;51.332;9.458;2024-01-06T06:40:52;5.55;;;1.90;;
21675;SDS011;10999;51.332;9.458;2024-01-06T06:43:19;6.18;;;2.05;;
21675;SDS011;10999;51.332;9.458;2024-01-06T06:45:46;7.93;;;2.25;;
21675;SDS011;10999;51.332;9.458;2024-01-06T06:48:13;6.13;;;1.80;;
21675;SDS011;10999;51.332;9.458;2024-01-06T06:50:39;4.65;;;1.55;;
21675;SDS011;10999;51.332;9.458;2024-01-06T06:53:09;5.13;;;1.77;;
21675;SDS011;10999;51.332;9.458;2024-01-06T06:55:36;6.20;;;1.60;;
21675;SDS011;10999;51.332;9.458;2024-01-06T06:58:04;7.22;;;1.63;;
21675;SDS011;10999;51.332;9.458;2024-01-06T07:00:34;7.45;;;1.80;;
21675;SDS011;10999;51.332;9.458;2024-01-06T07:03:02;3.67;;;1.35;;
21675;SDS011;10999;51.332;9.458;2024-01-06T07:05:29;4.90;;;1.80;;
21675;SDS011;10999;51.332;9.458;2024-01-06T07:07:56;5.38;;;1.38;;
21675;SDS011;10999;51.332;9.458;2024-01-06T07:10:25;9.50;;;2.40;;
21675;SDS011;10999;51.332;9.458;2024-01-06T07:12:52;4.97;;;1.50;;
21675;SDS011;10999;51.332;9.458;2024-01-06T07:15:19;5.78;;;2.05;;
21675;SDS011;10999;51.332;9.458;2024-01-06T07:17:46;8.35;;;1.80;;
21675;SDS011;10999;51.332;9.458;2024-01-06T07:20:13;4.10;;;1.50;;
21675;SDS011;10999;51.332;9.458;2024-01-06T07:22:40;5.57;;;1.83;;
21675;SDS011;10999;51.332;9.458;2024-01-06T07:25:07;6.50;;;1.70;;
21675;SDS011;10999;51.332;9.458;2024-01-06T07:27:34;8.15;;;2.33;;
21675;SDS011;10999;51.332;9.458;2024-01-06T07:30:00;4.15;;;1.55;;
21675;SDS011;10999;51.332;9.458;2024-01-06T07:32:28;4.13;;;1.58;;
21675;SDS011;10999;51.332;9.458;2024-01-06T07:34:54;7.15;;;1.55;;
21675;SDS011;10999;51.332;9.458;2024-01-06T07:37:21;4.43;;;1.23;;
21675;SDS011;10999;51.332;9.458;2024-01-06T07:39:48;8.05;;;1.52;;
21675;SDS011;10999;51.332;9.458;2024-01-06T07:42:15;5.13;;;1.92;;
21675;SDS011;10999;51.332;9.458;2024-01-06T07:44:42;6.50;;;2.15;;
21675;SDS011;10999;51.332;9.458;2024-01-06T07:47:08;5.65;;;1.60;;
21675;SDS011;10999;51.332;9.458;2024-01-06T07:49:35;5.90;;;1.63;;
21675;SDS011;10999;51.332;9.458;2024-01-06T07:52:03;5.13;;;1.58;;
21675;SDS011;10999;51.332;9.458;2024-01-06T07:54:30;6.00;;;1.45;;
21675;SDS011;10999;51.332;9.458;2024-01-06T07:56:56;6.85;;;2.08;;
21675;SDS011;10999;51.332;9.458;2024-01-06T07:59:23;8.27;;;1.95;;
21675;SDS011;10999;51.332;9.458;2024-01-06T08:01:50;4.60;;;1.73;;
21675;SDS011;10999;51.332;9.458;2024-01-06T08:04:17;4.40;;;1.40;;
21675;SDS011;10999;51.332;9.458;2024-01-06T08:06:44;6.25;;;1.67;;
21675;SDS011;10999;51.332;9.458;2024-01-06T08:09:11;6.43;;;1.92;;
21675;SDS011;10999;51.332;9.458;2024-01-06T08:11:38;5.57;;;1.40;;
21675;SDS011;10999;51.332;9.458;2024-01-06T08:14:05;6.78;;;1.83;;
21675;SDS011;10999;51.332;9.458;2024-01-06T08:16:32;5.75;;;1.85;;
21675;SDS011;10999;51.332;9.458;2024-01-06T08:18:58;6.18;;;1.95;;
21675;SDS011;10999;51.332;9.458;2024-01-06T08:21:26;8.98;;;2.10;;
21675;SDS011;10999;51.332;9.458;2024-01-06T08:23:53;6.28;;;1.85;;
21675;SDS011;10999;51.332;9.458;2024-01-06T08:26:20;5.53;;;1.90;;
21675;SDS011;10999;51.332;9.458;2024-01-06T08:28:46;4.03;;;1.95;;
21675;SDS011;10999;51.332;9.458;2024-01-06T08:31:13;8.73;;;2.60;;
21675;SDS011;10999;51.332;9.458;2024-01-06T08:33:40;5.72;;;2.05;;
21675;SDS011;10999;51.332;9.458;2024-01-06T08:36:07;7.50;;;2.42;;
21675;SDS011;10999;51.332;9.458;2024-01-06T08:38:35;6.95;;;2.35;;
21675;SDS011;10999;51.332;9.458;2024-01-06T08:41:02;6.53;;;2.42;;
21675;SDS011;10999;51.332;9.458;2024-01-06T08:43:29;6.38;;;2.05;;
21675;SDS011;10999;51.332;9.458;2024-01-06T08:45:56;6.55;;;2.15;;
21675;SDS011;10999;51.332;9.458;2024-01-06T08:48:23;8.90;;;2.35;;
21675;SDS011;10999;51.332;9.458;2024-01-06T08:50:50;5.15;;;2.10;;
21675;SDS011;10999;51.332;9.458;2024-01-06T08:53:17;8.35;;;2.40;;
21675;SDS011;10999;51.332;9.458;2024-01-06T08:55:43;8.52;;;2.30;;
21675;SDS011;10999;51.332;9.458;2024-01-06T08:58:12;6.53;;;2.17;;
21675;SDS011;10999;51.332;9.458;2024-01-06T09:00:39;4.07;;;1.55;;
21675;SDS011;10999;51.332;9.458;2024-01-06T09:03:06;7.35;;;2.20;;
21675;SDS011;10999;51.332;9.458;2024-01-06T09:05:33;4.63;;;1.77;;
21675;SDS011;10999;51.332;9.458;2024-01-06T09:08:00;5.32;;;1.80;;
21675;SDS011;10999;51.332;9.458;2024-01-06T09:10:27;12.77;;;2.53;;
21675;SDS011;10999;51.332;9.458;2024-01-06T09:12:55;6.13;;;2.20;;
21675;SDS011;10999;51.332;9.458;2024-01-06T09:15:23;7.75;;;2.00;;
21675;SDS011;10999;51.332;9.458;2024-01-06T09:17:50;8.38;;;1.95;;
21675;SDS011;10999;51.332;9.458;2024-01-06T09:20:17;7.55;;;2.80;;
21675;SDS011;10999;51.332;9.458;2024-01-06T09:22:44;8.60;;;2.53;;
21675;SDS011;10999;51.332;9.458;2024-01-06T09:25:10;6.45;;;2.20;;
21675;SDS011;10999;51.332;9.458;2024-01-06T09:27:39;5.43;;;1.90;;
21675;SDS011;10999;51.332;9.458;2024-01-06T09:30:06;7.82;;;2.20;;
21675;SDS011;10999;51.332;9.458;2024-01-06T09:32:34;7.78;;;2.33;;
21675;SDS011;10999;51.332;9.458;2024-01-06T09:35:01;6.97;;;2.03;;
21675;SDS011;10999;51.332;9.458;2024-01-06T09:37:28;6.10;;;1.92;;
21675;SDS011;10999;51.332;9.458;2024-01-06T09:39:55;9.48;;;3.03;;
21675;SDS011;10999;51.332;9.458;2024-01-06T09:42:21;8.73;;;3.05;;
21675;SDS011;10999;51.332;9.458;2024-01-06T09:44:48;8.15;;;2.83;;
21675;SDS011;10999;51.332;9.458;2024-01-06T09:47:15;8.95;;;3.10;;
21675;SDS011;10999;51.332;9.458;2024-01-06T09:49:46;6.70;;;2.50;;
21675;SDS011;10999;51.332;9.458;2024-01-06T09:52:16;9.20;;;2.92;;
21675;SDS011;10999;51.332;9.458;2024-01-06T09:54:53;5.00;;;2.28;;
21675;SDS011;10999;51.332;9.458;2024-01-06T09:57:22;7.07;;;2.30;;
21675;SDS011;10999;51.332;9.458;2024-01-06T09:59:50;7.18;;;2.35;;
21675;SDS011;10999;51.332;9.458;2024-01-06T10:02:17;7.55;;;2.58;;
21675;SDS011;10999;51.332;9.458;2024-01-06T10:04:44;7.00;;;1.88;;
21675;SDS011;10999;51.332;9.458;2024-01-06T10:07:11;5.88;;;2.63;;
21675;SDS011;10999;51.332;9.458;2024-01-06T10:09:40;10.45;;;2.63;;
21675;SDS011;10999;51.332;9.458;2024-01-06T10:12:08;8.25;;;2.13;;
21675;SDS011;10999;51.332;9.458;2024-01-06T10:14:35;9.13;;;2.50;;
21675;SDS011;10999;51.332;9.458;2024-01-06T10:17:05;5.53;;;2.08;;
21675;SDS011;10999;51.332;9.458;2024-01-06T10:19:34;9.15;;;2.53;;
21675;SDS011;10999;51.332;9.458;2024-01-06T10:22:02;7.60;;;2.38;;
21675;SDS011;10999;51.332;9.458;2024-01-06T10:24:29;8.75;;;3.30;;
21675;SDS011;10999;51.332;9.458;2024-01-06T10:26:58;7.60;;;2.38;;
21675;SDS011;10999;51.332;9.458;2024-01-06T10:29:25;7.00;;;2.35;;
21675;SDS011;10999;51.332;9.458;2024-01-06T10:31:53;9.05;;;2.53;;
21675;SDS011;10999;51.332;9.458;2024-01-06T10:34:24;7.45;;;2.83;;
21675;SDS011;10999;51.332;9.458;2024-01-06T10:36:51;7.35;;;2.15;;
21675;SDS011;10999;51.332;9.458;2024-01-06T10:39:18;10.48;;;3.00;;
21675;SDS011;10999;51.332;9.458;2024-01-06T10:41:48;6.35;;;2.22;;
21675;SDS011;10999;51.332;9.458;2024-01-06T10:44:15;9.13;;;2.60;;
21675;SDS011;10999;51.332;9.458;2024-01-06T10:46:45;5.28;;;2.45;;
21675;SDS011;10999;51.332;9.458;2024-01-06T10:49:14;7.78;;;2.08;;
21675;SDS011;10999;51.332;9.458;2024-01-06T10:51:43;7.60;;;2.20;;
21675;SDS011;10999;51.332;9.458;2024-01-06T10:54:12;6.88;;;2.30;;
21675;SDS011;10999;51.332;9.458;2024-01-06T10:56:41;7.57;;;2.58;;
21675;SDS011;10999;51.332;9.458;2024-01-06T10:59:09;7.43;;;2.75;;
21675;SDS011;10999;51.332;9.458;2024-01-06T11:01:38;7.38;;;2.10;;
21675;SDS011;10999;51.332;9.458;2024-01-06T11:04:06;8.38;;;2.85;;
21675;SDS011;10999;51.332;9.458;2024-01-06T11:06:33;5.53;;;2.17;;
21675;SDS011;10999;51.332;9.458;2024-01-06T11:09:14;7.03;;;2.10;;
21675;SDS011;10999;51.332;9.458;2024-01-06T11:11:47;8.07;;;2.42;;
21675;SDS011;10999;51.332;9.458;2024-01-06T11:14:27;8.60;;;2.58;;
21675;SDS011;10999;51.332;9.458;2024-01-06T11:16:54;8.02;;;2.60;;
21675;SDS011;10999;51.332;9.458;2024-01-06T11:22:18;5.05;;;2.05;;
21675;SDS011;10999;51.332;9.458;2024-01-06T11:24:49;8.07;;;3.28;;
21675;SDS011;10999;51.332;9.458;2024-01-06T11:27:19;6.88;;;2.55;;
21675;SDS011;10999;51.332;9.458;2024-01-06T11:29:52;10.23;;;3.08;;
21675;SDS011;10999;51.332;9.458;2024-01-06T11:32:25;9.15;;;2.75;;
21675;SDS011;10999;51.332;9.458;2024-01-06T11:34:54;7.18;;;2.47;;
21675;SDS011;10999;51.332;9.458;2024-01-06T11:37:25;6.45;;;2.17;;
21675;SDS011;10999;51.332;9.458;2024-01-06T11:40:15;6.07;;;2.22;;
21675;SDS011;10999;51.332;9.458;2024-01-06T11:42:56;8.48;;;2.53;;
21675;SDS011;10999;51.332;9.458;2024-01-06T11:45:24;8.43;;;2.47;;
21675;SDS011;10999;51.332;9.458;2024-01-06T11:47:57;8.40;;;3.00;;
21675;SDS011;10999;51.332;9.458;2024-01-06T11:50:26;7.38;;;2.63;;
21675;SDS011;10999;51.332;9.458;2024-01-06T11:52:54;8.05;;;2.80;;
21675;SDS011;10999;51.332;9.458;2024-01-06T11:55:21;6.35;;;2.33;;
21675;SDS011;10999;51.332;9.458;2024-01-06T11:57:48;9.07;;;2.88;;
21675;SDS011;10999;51.332;9.458;2024-01-06T12:00:16;8.50;;;2.70;;
21675;SDS011;10999;51.332;9.458;2024-01-06T12:02:44;6.97;;;2.00;;
21675;SDS011;10999;51.332;9.458;2024-01-06T12:05:15;7.95;;;2.25;;
21675;SDS011;10999;51.332;9.458;2024-01-06T12:07:54;6.25;;;2.20;;
21675;SDS011;10999;51.332;9.458;2024-01-06T12:10:22;5.78;;;2.60;;
21675;SDS011;10999;51.332;9.458;2024-01-06T12:13:00;9.68;;;2.78;;
21675;SDS011;10999;51.332;9.458;2024-01-06T12:15:29;5.88;;;2.25;;
21675;SDS011;10999;51.332;9.458;2024-01-06T12:17:57;6.55;;;2.72;;
21675;SDS011;10999;51.332;9.458;2024-01-06T12:20:25;9.80;;;2.83;;
21675;SDS011;10999;51.332;9.458;2024-01-06T12:22:52;5.68;;;2.28;;
21675;SDS011;10999;51.332;9.458;2024-01-06T12:25:20;7.75;;;3.38;;
21675;SDS011;10999;51.332;9.458;2024-01-06T12:27:48;9.77;;;3.88;;
21675;SDS011;10999;51.332;9.458;2024-01-06T12:30:16;7.65;;;3.22;;
21675;SDS011;10999;51.332;9.458;2024-01-06T12:32:46;9.15;;;3.45;;
21675;SDS011;10999;51.332;9.458;2024-01-06T12:35:15;10.40;;;3.33;;
21675;SDS011;10999;51.332;9.458;2024-01-06T12:37:42;10.68;;;3.38;;
21675;SDS011;10999;51.332;9.458;2024-01-06T12:40:15;8.68;;;2.70;;
21675;SDS011;10999;51.332;9.458;2024-01-06T12:42:44;6.97;;;2.60;;
21675;SDS011;10999;51.332;9.458;2024-01-06T12:45:11;7.43;;;2.90;;
21675;SDS011;10999;51.332;9.458;2024-01-06T12:47:39;5.88;;;1.92;;
21675;SDS011;10999;51.332;9.458;2024-01-06T12:50:07;7.00;;;2.53;;
21675;SDS011;10999;51.332;9.458;2024-01-06T12:52:34;5.47;;;2.20;;
21675;SDS011;10999;51.332;9.458;2024-01-06T12:55:01;5.53;;;1.80;;
21675;SDS011;10999;51.332;9.458;2024-01-06T12:57:30;4.65;;;1.55;;
21675;SDS011;10999;51.332;9.458;2024-01-06T12:59:57;3.67;;;1.50;;
21675;SDS011;10999;51.332;9.458;2024-01-06T13:02:24;2.55;;;0.88;;
21675;SDS011;10999;51.332;9.458;2024-01-06T13:04:50;4.80;;;1.55;;
21675;SDS011;10999;51.332;9.458;2024-01-06T13:07:17;3.28;;;1.23;;
21675;SDS011;10999;51.332;9.458;2024-01-06T13:09:44;3.17;;;1.13;;
21675;SDS011;10999;51.332;9.458;2024-01-06T13:12:11;4.35;;;1.60;;
21675;SDS011;10999;51.332;9.458;2024-01-06T13:14:38;2.60;;;1.17;;
21675;SDS011;10999;51.332;9.458;2024-01-06T13:17:05;5.18;;;1.35;;
21675;SDS011;10999;51.332;9.458;2024-01-06T13:19:32;3.63;;;0.80;;
21675;SDS011;10999;51.332;9.458;2024-01-06T13:22:00;3.22;;;1.02;;
21675;SDS011;10999;51.332;9.458;2024-01-06T13:24:27;1.92;;;0.60;;
21675;SDS011;10999;51.332;9.458;2024-01-06T13:26:54;2.20;;;0.73;;
21675;SDS011;10999;51.332;9.458;2024-01-06T13:29:20;2.20;;;0.60;;
21675;SDS011;10999;51.332;9.458;2024-01-06T13:31:47;2.35;;;0.60;;
21675;SDS011;10999;51.332;9.458;2024-01-06T13:34:14;2.47;;;0.70;;
21675;SDS011;10999;51.332;9.458;2024-01-06T13:36:41;3.42;;;0.80;;
21675;SDS011;10999;51.332;9.458;2024-01-06T13:39:08;4.70;;;1.40;;
21675;SDS011;10999;51.332;9.458;2024-01-06T13:41:35;3.50;;;1.20;;
21675;SDS011;10999;51.332;9.458;2024-01-06T13:44:02;4.57;;;1.30;;
21675;SDS011;10999;51.332;9.458;2024-01-06T13:46:28;3.65;;;1.08;;
21675;SDS011;10999;51.332;9.458;2024-01-06T13:48:55;3.05;;;0.95;;
21675;SDS011;10999;51.332;9.458;2024-01-06T13:51:23;3.55;;;1.10;;
21675;SDS011;10999;51.332;9.458;2024-01-06T13:53:51;3.15;;;0.98;;
21675;SDS011;10999;51.332;9.458;2024-01-06T13:56:17;3.33;;;1.00;;
21675;SDS011;10999;51.332;9.458;2024-01-06T13:58:44;3.00;;;0.73;;
21675;SDS011;10999;51.332;9.458;2024-01-06T14:01:11;2.83;;;0.93;;
21675;SDS011;10999;51.332;9.458;2024-01-06T14:03:38;2.20;;;0.90;;
21675;SDS011;10999;51.332;9.458;2024-01-06T14:06:05;4.13;;;1.30;;
21675;SDS011;10999;51.332;9.458;2024-01-06T14:08:33;4.10;;;1.13;;
21675;SDS011;10999;51.332;9.458;2024-01-06T14:11:00;3.95;;;1.05;;
21675;SDS011;10999;51.332;9.458;2024-01-06T14:13:27;4.18;;;1.38;;
21675;SDS011;10999;51.332;9.458;2024-01-06T14:15:58;3.28;;;1.45;;
21675;SDS011;10999;51.332;9.458;2024-01-06T14:18:25;4.50;;;1.40;;
21675;SDS011;10999;51.332;9.458;2024-01-06T14:20:53;3.95;;;1.40;;
21675;SDS011;10999;51.332;9.458;2024-01-06T14:23:21;2.97;;;0.98;;
21675;SDS011;10999;51.332;9.458;2024-01-06T14:25:48;5.50;;;1.48;;
21675;SDS011;10999;51.332;9.458;2024-01-06T14:28:15;4.63;;;1.45;;
21675;SDS011;10999;51.332;9.458;2024-01-06T14:30:42;3.35;;;1.13;;
21675;SDS011;10999;51.332;9.458;2024-01-06T14:33:09;3.05;;;1.00;;
21675;SDS011;10999;51.332;9.458;2024-01-06T14:35:36;3.20;;;0.85;;
21675;SDS011;10999;51.332;9.458;2024-01-06T14:38:02;3.17;;;1.10;;
21675;SDS011;10999;51.332;9.458;2024-01-06T14:40:29;4.15;;;0.85;;
21675;SDS011;10999;51.332;9.458;2024-01-06T14:42:56;6.65;;;2.33;;
21675;SDS011;10999;51.332;9.458;2024-01-06T14:45:24;10.63;;;3.50;;
21675;SDS011;10999;51.332;9.458;2024-01-06T14:47:50;11.48;;;4.65;;
21675;SDS011;10999;51.332;9.458;2024-01-06T14:50:17;16.05;;;5.72;;
21675;SDS011;10999;51.332;9.458;2024-01-06T14:52:44;13.50;;;5.07;;